createdAt,value
2019-02-26T00:00:12.819Z,81.66
2019-02-26T00:01:14.452Z,81.49
2019-02-26T00:02:14.849Z,81.66
2019-02-26T00:03:13.088Z,81.66
2019-02-26T00:04:12.080Z,81.45
2019-02-26T00:05:12.267Z,81.56
2019-02-26T00:06:12.063Z,81.56
2019-02-26T00:07:14.225Z,81.35
2019-02-26T00:08:12.046Z,81.66
2019-02-26T00:09:12.026Z,81.56
2019-02-26T00:10:12.022Z,81.76
2019-02-26T00:11:12.223Z,81.59
2019-02-26T00:12:12.009Z,81.97
2019-02-26T00:13:11.990Z,81.56
2019-02-26T00:14:15.560Z,81.80
2019-02-26T00:15:12.960Z,81.66
2019-02-26T00:16:14.966Z,81.70
2019-02-26T00:17:13.009Z,81.76
2019-02-26T00:18:13.961Z,81.70
2019-02-26T00:19:14.264Z,82.42
2019-02-26T00:20:12.880Z,82.42
2019-02-26T00:21:11.901Z,82.21
2019-02-26T00:22:13.726Z,82.32
2019-02-26T00:23:12.085Z,81.90
2019-02-26T00:24:12.823Z,81.87
2019-02-26T00:25:12.863Z,81.76
2019-02-26T00:26:12.735Z,81.80
2019-02-26T00:27:11.843Z,81.56
2019-02-26T00:28:13.125Z,81.38
2019-02-26T00:29:11.814Z,81.59
2019-02-26T00:30:13.681Z,81.70
2019-02-26T00:31:11.795Z,82.01
2019-02-26T00:32:13.840Z,81.70
2019-02-26T00:33:11.775Z,81.38
2019-02-26T00:34:14.026Z,82.01
2019-02-26T00:35:11.952Z,81.70
2019-02-26T00:36:13.296Z,82.46
2019-02-26T00:37:11.746Z,82.67
2019-02-26T00:38:13.345Z,82.67
2019-02-26T00:39:11.742Z,82.15
2019-02-26T00:40:12.394Z,82.35
2019-02-26T00:41:11.689Z,82.77
2019-02-26T00:42:11.892Z,82.91
2019-02-26T00:43:11.669Z,83.12
2019-02-26T00:44:11.669Z,83.01
2019-02-26T00:45:11.655Z,82.91
2019-02-26T00:46:11.636Z,82.91
2019-02-26T00:47:11.643Z,83.33
2019-02-26T00:48:11.799Z,83.12
2019-02-26T00:49:11.618Z,83.43
2019-02-26T00:50:12.366Z,83.47
2019-02-26T00:51:11.619Z,83.33
2019-02-26T00:52:13.190Z,83.68
2019-02-26T00:53:11.559Z,83.37
2019-02-26T00:54:11.559Z,84.20
2019-02-26T00:55:11.553Z,84.20
2019-02-26T00:56:11.539Z,84.41
2019-02-26T00:57:13.846Z,84.82
2019-02-26T00:58:12.862Z,84.92
2019-02-26T00:59:11.533Z,84.72
2019-02-26T01:00:12.306Z,84.30
2019-02-26T01:01:12.924Z,84.51
2019-02-26T01:02:11.780Z,84.20
2019-02-26T01:03:13.265Z,84.51
2019-02-26T01:04:11.451Z,84.09
2019-02-26T01:05:13.163Z,84.30
2019-02-26T01:06:11.423Z,83.99
2019-02-26T01:07:11.571Z,84.30
2019-02-26T01:08:13.448Z,84.09
2019-02-26T01:09:11.415Z,84.30
2019-02-26T01:10:13.388Z,84.09
2019-02-26T01:11:11.583Z,84.41
2019-02-26T01:12:13.575Z,84.09
2019-02-26T01:13:11.357Z,84.09
2019-02-26T01:14:11.337Z,84.09
2019-02-26T01:15:12.163Z,84.09
2019-02-26T01:16:11.316Z,84.20
2019-02-26T01:17:12.631Z,84.09
2019-02-26T01:18:11.323Z,84.72
2019-02-26T01:19:13.509Z,84.61
2019-02-26T01:20:11.325Z,84.30
2019-02-26T01:21:11.260Z,84.51
2019-02-26T01:22:11.254Z,84.41
2019-02-26T01:23:11.441Z,84.09
2019-02-26T01:24:11.231Z,84.30
2019-02-26T01:25:12.652Z,84.30
2019-02-26T01:26:12.154Z,84.41
2019-02-26T01:27:11.208Z,84.30
2019-02-26T01:28:14.121Z,84.44
2019-02-26T01:29:11.194Z,84.23
2019-02-26T01:30:11.393Z,84.86
2019-02-26T01:31:11.154Z,85.06
2019-02-26T01:32:13.292Z,85.06
2019-02-26T01:33:11.130Z,84.82
2019-02-26T01:34:13.250Z,84.96
2019-02-26T01:35:12.832Z,84.72
2019-02-26T01:36:11.100Z,84.72
2019-02-26T01:37:12.060Z,84.41
2019-02-26T01:38:12.573Z,84.23
2019-02-26T01:39:11.996Z,84.86
2019-02-26T01:40:15.104Z,84.44
2019-02-26T01:41:11.349Z,84.75
2019-02-26T01:42:13.375Z,85.80
2019-02-26T01:43:11.027Z,84.75
2019-02-26T01:44:11.014Z,85.28
2019-02-26T01:45:11.009Z,85.17
2019-02-26T01:46:11.675Z,85.49
2019-02-26T01:47:11.001Z,85.38
2019-02-26T01:48:11.855Z,84.96
2019-02-26T01:49:12.144Z,85.17
2019-02-26T01:50:12.842Z,84.86
2019-02-26T01:51:10.936Z,85.13
2019-02-26T01:52:12.712Z,84.96
2019-02-26T01:53:12.123Z,85.28
2019-02-26T01:54:12.222Z,85.28
2019-02-26T01:55:11.119Z,85.69
2019-02-26T01:56:10.893Z,85.90
2019-02-26T01:57:10.872Z,85.38
2019-02-26T01:58:10.860Z,86.11
2019-02-26T01:59:10.865Z,85.49
2019-02-26T02:00:10.847Z,86.00
2019-02-26T02:01:13.992Z,85.80
2019-02-26T02:02:14.793Z,85.38
2019-02-26T02:03:11.802Z,86.00
2019-02-26T02:04:12.752Z,85.63
2019-02-26T02:05:10.799Z,85.49
2019-02-26T02:06:11.776Z,85.59
2019-02-26T02:07:10.759Z,85.59
2019-02-26T02:08:13.066Z,85.69
2019-02-26T02:09:13.255Z,85.38
2019-02-26T02:10:10.729Z,85.63
2019-02-26T02:11:10.739Z,85.52
2019-02-26T02:12:11.052Z,85.63
2019-02-26T02:13:11.454Z,85.73
2019-02-26T02:14:12.629Z,85.42
2019-02-26T02:15:12.485Z,86.25
2019-02-26T02:16:10.672Z,86.11
2019-02-26T02:17:11.532Z,85.31
2019-02-26T02:18:10.808Z,85.69
2019-02-26T02:19:10.638Z,85.73
2019-02-26T02:20:13.113Z,85.80
2019-02-26T02:21:10.619Z,85.69
2019-02-26T02:22:12.272Z,85.69
2019-02-26T02:23:10.612Z,85.73
2019-02-26T02:24:12.675Z,85.59
2019-02-26T02:25:10.773Z,85.49
2019-02-26T02:26:11.649Z,85.73
2019-02-26T02:27:12.605Z,85.42
2019-02-26T02:28:10.719Z,85.52
2019-02-26T02:29:12.611Z,85.52
2019-02-26T02:30:14.147Z,85.63
2019-02-26T02:31:11.505Z,86.35
2019-02-26T02:32:10.674Z,86.46
2019-02-26T02:33:10.492Z,86.15
2019-02-26T02:34:10.474Z,86.35
2019-02-26T02:35:12.627Z,85.73
2019-02-26T02:36:11.738Z,85.83
2019-02-26T02:37:10.453Z,85.73
2019-02-26T02:38:10.635Z,85.94
2019-02-26T02:39:13.204Z,85.83
2019-02-26T02:40:11.429Z,85.63
2019-02-26T02:41:10.403Z,86.15
2019-02-26T02:42:10.794Z,85.83
2019-02-26T02:43:12.327Z,85.42
2019-02-26T02:44:12.428Z,85.35
2019-02-26T02:45:11.373Z,85.31
2019-02-26T02:46:10.370Z,85.42
2019-02-26T02:47:11.297Z,85.73
2019-02-26T02:48:11.747Z,85.67
2019-02-26T02:49:12.602Z,85.88
2019-02-26T02:50:12.633Z,85.77
2019-02-26T02:51:13.517Z,85.42
2019-02-26T02:52:11.841Z,85.67
2019-02-26T02:53:10.280Z,85.77
2019-02-26T02:54:12.222Z,86.19
2019-02-26T02:55:13.860Z,86.08
2019-02-26T02:56:12.893Z,86.19
2019-02-26T02:57:10.235Z,86.60
2019-02-26T02:58:12.401Z,86.85
2019-02-26T02:59:11.266Z,86.43
2019-02-26T03:00:10.208Z,86.33
2019-02-26T03:01:10.194Z,86.65
2019-02-26T03:02:12.656Z,86.96
2019-02-26T03:03:10.411Z,86.75
2019-02-26T03:04:10.200Z,86.85
2019-02-26T03:05:10.150Z,86.85
2019-02-26T03:06:12.279Z,86.75
2019-02-26T03:07:10.140Z,86.85
2019-02-26T03:08:10.915Z,86.85
2019-02-26T03:09:11.698Z,87.06
2019-02-26T03:10:11.984Z,87.16
2019-02-26T03:11:10.095Z,87.99
2019-02-26T03:12:10.083Z,87.79
2019-02-26T03:13:10.071Z,87.89
2019-02-26T03:14:10.935Z,88.10
2019-02-26T03:15:10.197Z,87.99
2019-02-26T03:16:10.037Z,87.89
2019-02-26T03:17:11.151Z,87.79
2019-02-26T03:18:12.531Z,87.27
2019-02-26T03:19:12.121Z,87.68
2019-02-26T03:20:10.209Z,87.73
2019-02-26T03:21:09.990Z,87.89
2019-02-26T03:22:12.661Z,88.10
2019-02-26T03:23:15.119Z,87.68
2019-02-26T03:24:10.953Z,86.96
2019-02-26T03:25:09.966Z,87.16
2019-02-26T03:26:12.645Z,87.27
2019-02-26T03:27:10.922Z,87.16
2019-02-26T03:28:09.918Z,87.10
2019-02-26T03:29:10.095Z,87.27
2019-02-26T03:30:09.893Z,87.27
2019-02-26T03:31:09.907Z,87.16
2019-02-26T03:32:09.889Z,87.89
2019-02-26T03:33:09.890Z,87.73
2019-02-26T03:34:14.472Z,87.83
2019-02-26T03:35:13.218Z,88.14
2019-02-26T03:36:11.138Z,88.04
2019-02-26T03:37:10.987Z,87.68
2019-02-26T03:38:09.810Z,87.83
2019-02-26T03:39:09.810Z,87.58
2019-02-26T03:40:09.789Z,87.93
2019-02-26T03:41:09.778Z,87.93
2019-02-26T03:42:10.562Z,87.79
2019-02-26T03:43:12.381Z,87.79
2019-02-26T03:44:09.748Z,87.93
2019-02-26T03:45:09.734Z,87.68
2019-02-26T03:46:09.728Z,87.68
2019-02-26T03:47:09.713Z,87.37
2019-02-26T03:48:09.931Z,87.99
2019-02-26T03:49:10.027Z,88.24
2019-02-26T03:50:09.711Z,88.20
2019-02-26T03:51:09.682Z,87.79
2019-02-26T03:52:09.663Z,87.48
2019-02-26T03:53:10.110Z,87.79
2019-02-26T03:54:09.816Z,87.83
2019-02-26T03:55:12.126Z,87.99
2019-02-26T03:56:12.529Z,88.04
2019-02-26T03:57:11.461Z,87.73
2019-02-26T03:58:09.602Z,87.58
2019-02-26T03:59:11.693Z,87.93
2019-02-26T04:00:11.469Z,87.93
2019-02-26T04:01:10.927Z,87.83
2019-02-26T04:02:11.770Z,88.24
2019-02-26T04:03:11.904Z,88.14
2019-02-26T04:04:09.541Z,87.83
2019-02-26T04:05:09.531Z,88.04
2019-02-26T04:06:11.734Z,88.04
2019-02-26T04:07:10.593Z,88.35
2019-02-26T04:08:09.500Z,88.35
2019-02-26T04:09:11.078Z,88.35
2019-02-26T04:10:09.483Z,88.66
2019-02-26T04:11:09.465Z,88.24
2019-02-26T04:12:11.250Z,88.24
2019-02-26T04:13:09.702Z,87.73
2019-02-26T04:14:12.151Z,87.83
2019-02-26T04:15:09.435Z,87.66
2019-02-26T04:16:09.636Z,88.08
2019-02-26T04:17:09.417Z,88.39
2019-02-26T04:18:09.400Z,88.70
2019-02-26T04:19:09.496Z,88.70
2019-02-26T04:20:09.583Z,89.32
2019-02-26T04:21:11.878Z,89.54
2019-02-26T04:22:12.451Z,89.54
2019-02-26T04:23:11.384Z,89.54
2019-02-26T04:24:11.423Z,89.32
2019-02-26T04:25:09.555Z,88.81
2019-02-26T04:26:09.311Z,89.32
2019-02-26T04:27:09.298Z,89.37
2019-02-26T04:28:10.964Z,89.22
2019-02-26T04:29:09.284Z,89.54
2019-02-26T04:30:11.061Z,89.32
2019-02-26T04:31:09.481Z,88.81
2019-02-26T04:32:11.866Z,88.39
2019-02-26T04:33:11.441Z,88.39
2019-02-26T04:34:09.225Z,88.60
2019-02-26T04:35:09.223Z,88.81
2019-02-26T04:36:11.197Z,89.43
2019-02-26T04:37:10.423Z,89.43
2019-02-26T04:38:09.403Z,89.37
2019-02-26T04:39:10.847Z,89.06
2019-02-26T04:40:11.837Z,89.47
2019-02-26T04:41:12.409Z,89.47
2019-02-26T04:42:11.348Z,89.68
2019-02-26T04:43:10.473Z,89.78
2019-02-26T04:44:09.339Z,90.10
2019-02-26T04:45:09.404Z,90.00
2019-02-26T04:46:10.742Z,90.00
2019-02-26T04:47:09.099Z,89.68
2019-02-26T04:48:09.080Z,90.00
2019-02-26T04:49:09.090Z,90.00
2019-02-26T04:50:09.280Z,89.89
2019-02-26T04:51:09.082Z,90.06
2019-02-26T04:52:11.134Z,90.10
2019-02-26T04:53:11.175Z,89.89
2019-02-26T04:54:09.015Z,89.89
2019-02-26T04:55:09.029Z,90.10
2019-02-26T04:56:12.770Z,89.89
2019-02-26T04:57:09.992Z,89.75
2019-02-26T04:58:11.236Z,89.89
2019-02-26T04:59:09.821Z,89.89
2019-02-26T05:00:10.613Z,89.89
2019-02-26T05:01:10.123Z,89.89
2019-02-26T05:02:08.939Z,89.89
2019-02-26T05:03:11.227Z,89.89
2019-02-26T05:04:09.970Z,90.10
2019-02-26T05:05:08.902Z,90.00
2019-02-26T05:06:10.813Z,90.10
2019-02-26T05:07:12.755Z,90.20
2019-02-26T05:08:10.531Z,90.00
2019-02-26T05:09:10.558Z,89.78
2019-02-26T05:10:09.089Z,89.89
2019-02-26T05:11:08.836Z,90.10
2019-02-26T05:12:08.890Z,89.78
2019-02-26T05:13:09.668Z,90.52
2019-02-26T05:14:09.207Z,89.64
2019-02-26T05:15:11.599Z,89.89
2019-02-26T05:16:09.859Z,89.78
2019-02-26T05:17:08.774Z,89.89
2019-02-26T05:18:08.967Z,90.20
2019-02-26T05:19:10.607Z,89.78
2019-02-26T05:20:10.585Z,89.78
2019-02-26T05:21:10.838Z,90.25
2019-02-26T05:22:08.720Z,89.78
2019-02-26T05:23:08.730Z,90.03
2019-02-26T05:24:08.719Z,89.93
2019-02-26T05:25:11.711Z,90.03
2019-02-26T05:26:11.727Z,90.00
2019-02-26T05:27:12.123Z,89.89
2019-02-26T05:28:10.053Z,90.35
2019-02-26T05:29:08.666Z,90.20
2019-02-26T05:30:09.753Z,90.62
2019-02-26T05:31:11.253Z,90.87
2019-02-26T05:32:09.331Z,90.31
2019-02-26T05:33:08.823Z,90.31
2019-02-26T05:34:08.622Z,90.35
2019-02-26T05:35:08.585Z,90.00
2019-02-26T05:36:09.546Z,90.56
2019-02-26T05:37:10.979Z,90.45
2019-02-26T05:38:09.631Z,90.35
2019-02-26T05:39:08.712Z,90.31
2019-02-26T05:40:10.430Z,90.56
2019-02-26T05:41:08.521Z,90.52
2019-02-26T05:42:08.526Z,90.56
2019-02-26T05:43:08.515Z,90.14
2019-02-26T05:44:10.547Z,90.10
2019-02-26T05:45:09.325Z,90.83
2019-02-26T05:46:08.675Z,90.00
2019-02-26T05:47:08.541Z,90.35
2019-02-26T05:48:08.446Z,90.00
2019-02-26T05:49:10.592Z,90.03
2019-02-26T05:50:12.360Z,90.45
2019-02-26T05:51:10.897Z,90.45
2019-02-26T05:52:08.414Z,90.56
2019-02-26T05:53:10.487Z,90.35
2019-02-26T05:54:11.536Z,90.52
2019-02-26T05:55:09.387Z,90.10
2019-02-26T05:56:08.890Z,90.87
2019-02-26T05:57:10.837Z,90.00
2019-02-26T05:58:09.981Z,90.35
2019-02-26T05:59:09.527Z,90.56
2019-02-26T06:00:11.009Z,90.14
2019-02-26T06:01:08.313Z,90.25
2019-02-26T06:02:10.573Z,90.03
2019-02-26T06:03:09.542Z,90.14
2019-02-26T06:04:10.100Z,90.45
2019-02-26T06:05:08.282Z,90.25
2019-02-26T06:06:08.264Z,90.45
2019-02-26T06:07:08.247Z,90.35
2019-02-26T06:08:08.241Z,90.50
2019-02-26T06:09:08.291Z,90.66
2019-02-26T06:10:08.217Z,90.81
2019-02-26T06:11:08.218Z,91.02
2019-02-26T06:12:08.194Z,90.35
2019-02-26T06:13:10.063Z,90.60
2019-02-26T06:14:11.978Z,90.66
2019-02-26T06:15:08.526Z,91.29
2019-02-26T06:16:08.164Z,90.87
2019-02-26T06:17:10.507Z,90.81
2019-02-26T06:18:08.145Z,90.66
2019-02-26T06:19:09.037Z,90.28
2019-02-26T06:20:10.839Z,90.77
2019-02-26T06:21:08.144Z,90.45
2019-02-26T06:22:08.935Z,90.56
2019-02-26T06:23:08.114Z,90.28
2019-02-26T06:24:08.096Z,90.60
2019-02-26T06:25:13.495Z,90.60
2019-02-26T06:26:13.877Z,91.02
2019-02-26T06:27:13.098Z,90.60
2019-02-26T06:28:10.561Z,90.70
2019-02-26T06:29:08.331Z,90.81
2019-02-26T06:30:09.980Z,91.22
2019-02-26T06:31:11.484Z,91.12
2019-02-26T06:32:09.610Z,91.02
2019-02-26T06:33:09.745Z,91.64
2019-02-26T06:34:08.807Z,91.85
2019-02-26T06:35:08.541Z,91.18
2019-02-26T06:36:08.148Z,91.33
2019-02-26T06:37:10.033Z,90.77
2019-02-26T06:38:09.208Z,91.18
2019-02-26T06:39:07.907Z,91.02
2019-02-26T06:40:07.897Z,91.39
2019-02-26T06:41:07.912Z,91.22
2019-02-26T06:42:09.799Z,91.43
2019-02-26T06:43:07.865Z,91.43
2019-02-26T06:44:07.857Z,91.02
2019-02-26T06:45:08.531Z,91.43
2019-02-26T06:46:11.174Z,91.43
2019-02-26T06:47:09.133Z,91.22
2019-02-26T06:48:07.822Z,91.64
2019-02-26T06:49:07.804Z,91.85
2019-02-26T06:50:08.883Z,91.85
2019-02-26T06:51:07.810Z,92.27
2019-02-26T06:52:08.429Z,92.06
2019-02-26T06:53:09.142Z,91.75
2019-02-26T06:54:08.023Z,91.64
2019-02-26T06:55:07.849Z,92.06
2019-02-26T06:56:07.748Z,91.96
2019-02-26T06:57:07.749Z,91.33
2019-02-26T06:58:07.710Z,91.02
2019-02-26T06:59:09.630Z,90.91
2019-02-26T07:00:07.693Z,90.70
2019-02-26T07:01:09.477Z,90.66
2019-02-26T07:02:08.812Z,90.81
2019-02-26T07:03:07.820Z,90.35
2019-02-26T07:04:12.165Z,90.35
2019-02-26T07:05:08.633Z,90.56
2019-02-26T07:06:07.874Z,90.87
2019-02-26T07:07:12.232Z,90.97
2019-02-26T07:08:08.620Z,91.18
2019-02-26T07:09:08.720Z,90.97
2019-02-26T07:10:07.594Z,91.35
2019-02-26T07:11:07.579Z,91.35
2019-02-26T07:12:07.569Z,90.93
2019-02-26T07:13:09.438Z,91.39
2019-02-26T07:14:08.558Z,91.04
2019-02-26T07:15:11.644Z,90.72
2019-02-26T07:16:07.523Z,90.83
2019-02-26T07:17:07.513Z,90.20
2019-02-26T07:18:09.487Z,90.16
2019-02-26T07:19:09.189Z,89.95
2019-02-26T07:20:07.498Z,90.37
2019-02-26T07:21:07.475Z,89.64
2019-02-26T07:22:08.472Z,89.85
2019-02-26T07:23:08.792Z,89.95
2019-02-26T07:24:07.816Z,89.95
2019-02-26T07:25:08.363Z,89.91
2019-02-26T07:26:07.441Z,89.70
2019-02-26T07:27:09.151Z,90.33
2019-02-26T07:28:07.395Z,90.44
2019-02-26T07:29:08.115Z,90.01
2019-02-26T07:30:07.375Z,89.98
2019-02-26T07:31:09.437Z,89.98
2019-02-26T07:32:07.368Z,89.35
2019-02-26T07:33:08.160Z,89.31
2019-02-26T07:34:07.500Z,88.73
2019-02-26T07:35:08.713Z,88.42
2019-02-26T07:36:07.316Z,88.17
2019-02-26T07:37:08.942Z,88.17
2019-02-26T07:38:07.318Z,87.65
2019-02-26T07:39:07.726Z,87.96
2019-02-26T07:40:08.789Z,88.27
2019-02-26T07:41:07.278Z,87.71
2019-02-26T07:42:09.094Z,87.85
2019-02-26T07:43:09.207Z,87.33
2019-02-26T07:44:12.678Z,87.08
2019-02-26T07:45:14.963Z,86.77
2019-02-26T07:46:10.378Z,86.57
2019-02-26T07:47:08.846Z,86.88
2019-02-26T07:48:07.199Z,86.57
2019-02-26T07:49:07.446Z,86.63
2019-02-26T07:50:09.208Z,86.83
2019-02-26T07:51:07.391Z,86.73
2019-02-26T07:52:08.758Z,86.32
2019-02-26T07:53:07.132Z,86.42
2019-02-26T07:54:07.135Z,85.75
2019-02-26T07:55:09.169Z,85.59
2019-02-26T07:56:08.669Z,85.65
2019-02-26T07:57:07.096Z,85.65
2019-02-26T07:58:09.158Z,85.65
2019-02-26T07:59:09.768Z,85.30
2019-02-26T08:00:07.092Z,85.44
2019-02-26T08:01:07.048Z,85.34
2019-02-26T08:02:08.852Z,85.41
2019-02-26T08:03:07.026Z,84.78
2019-02-26T08:04:08.586Z,84.89
2019-02-26T08:05:07.005Z,84.37
2019-02-26T08:06:09.227Z,83.95
2019-02-26T08:07:06.999Z,83.60
2019-02-26T08:08:06.986Z,83.91
2019-02-26T08:09:10.836Z,84.01
2019-02-26T08:10:09.942Z,84.43
2019-02-26T08:11:06.943Z,84.50
2019-02-26T08:12:08.966Z,83.67
2019-02-26T08:13:08.035Z,83.46
2019-02-26T08:14:06.912Z,83.25
2019-02-26T08:15:08.729Z,83.15
2019-02-26T08:16:06.888Z,83.01
2019-02-26T08:17:06.871Z,82.86
2019-02-26T08:18:07.065Z,82.97
2019-02-26T08:19:06.876Z,82.90
2019-02-26T08:20:08.150Z,82.97
2019-02-26T08:21:07.118Z,82.14
2019-02-26T08:22:06.827Z,82.76
2019-02-26T08:23:06.819Z,81.68
2019-02-26T08:24:06.805Z,81.58
2019-02-26T08:25:06.819Z,81.79
2019-02-26T08:26:06.779Z,81.48
2019-02-26T08:27:08.529Z,81.79
2019-02-26T08:28:06.936Z,82.51
2019-02-26T08:29:07.565Z,81.68
2019-02-26T08:30:06.876Z,81.27
2019-02-26T08:31:06.746Z,81.23
2019-02-26T08:32:06.719Z,81.65
2019-02-26T08:33:07.463Z,81.48
2019-02-26T08:34:06.708Z,81.89
2019-02-26T08:35:06.692Z,81.27
2019-02-26T08:36:06.677Z,80.85
2019-02-26T08:37:06.682Z,80.33
2019-02-26T08:38:06.942Z,80.71
2019-02-26T08:39:06.652Z,80.40
2019-02-26T08:40:06.630Z,80.71
2019-02-26T08:41:06.624Z,80.82
2019-02-26T08:42:06.823Z,80.51
2019-02-26T08:43:06.620Z,80.57
2019-02-26T08:44:06.620Z,81.02
2019-02-26T08:45:06.587Z,80.47
2019-02-26T08:46:07.358Z,79.95
2019-02-26T08:47:11.158Z,79.85
2019-02-26T08:48:07.566Z,79.60
2019-02-26T08:49:08.750Z,79.60
2019-02-26T08:50:07.448Z,79.60
2019-02-26T08:51:10.703Z,79.81
2019-02-26T08:52:07.506Z,79.57
2019-02-26T08:53:06.491Z,78.85
2019-02-26T08:54:06.499Z,79.05
2019-02-26T08:55:07.178Z,79.77
2019-02-26T08:56:08.366Z,79.36
2019-02-26T08:57:06.449Z,79.53
2019-02-26T08:58:07.674Z,79.43
2019-02-26T08:59:06.429Z,79.53
2019-02-26T09:00:06.458Z,79.29
2019-02-26T09:01:06.409Z,78.36
2019-02-26T09:02:06.417Z,77.91
2019-02-26T09:03:08.275Z,77.77
2019-02-26T09:04:06.784Z,77.04
2019-02-26T09:05:07.511Z,77.46
2019-02-26T09:06:12.747Z,77.36
2019-02-26T09:07:07.362Z,76.50
2019-02-26T09:08:08.485Z,75.87
2019-02-26T09:09:06.846Z,76.18
2019-02-26T09:10:07.214Z,76.81
2019-02-26T09:11:08.124Z,76.18
2019-02-26T09:12:06.316Z,75.77
2019-02-26T09:13:08.756Z,75.84
2019-02-26T09:14:07.119Z,75.63
2019-02-26T09:15:06.273Z,75.63
2019-02-26T09:16:07.906Z,74.60
2019-02-26T09:17:06.260Z,74.36
2019-02-26T09:18:06.237Z,74.98
2019-02-26T09:19:06.219Z,74.88
2019-02-26T09:20:09.756Z,74.46
2019-02-26T09:21:07.268Z,73.71
2019-02-26T09:22:09.690Z,73.05
2019-02-26T09:23:07.178Z,72.33
2019-02-26T09:24:07.682Z,72.61
2019-02-26T09:25:06.204Z,72.09
2019-02-26T09:26:07.046Z,71.96
2019-02-26T09:27:06.149Z,72.06
2019-02-26T09:28:06.143Z,72.64
2019-02-26T09:29:06.109Z,71.82
2019-02-26T09:30:08.451Z,71.72
2019-02-26T09:31:06.781Z,72.24
2019-02-26T09:32:07.349Z,72.00
2019-02-26T09:33:08.321Z,72.00
2019-02-26T09:34:06.062Z,72.09
2019-02-26T09:35:06.045Z,70.97
2019-02-26T09:36:06.036Z,71.28
2019-02-26T09:37:07.994Z,70.97
2019-02-26T09:38:06.032Z,69.90
2019-02-26T09:39:08.186Z,70.73
2019-02-26T09:40:05.993Z,69.90
2019-02-26T09:41:05.988Z,68.95
2019-02-26T09:42:06.539Z,68.64
2019-02-26T09:43:06.305Z,68.61
2019-02-26T09:44:06.793Z,68.06
2019-02-26T09:45:05.956Z,67.44
2019-02-26T09:46:08.977Z,67.11
2019-02-26T09:47:07.553Z,67.28
2019-02-26T09:48:05.908Z,67.08
2019-02-26T09:49:09.956Z,66.43
2019-02-26T09:50:06.902Z,65.27
2019-02-26T09:51:07.595Z,65.99
2019-02-26T09:52:06.579Z,64.56
2019-02-26T09:53:05.876Z,64.53
2019-02-26T09:54:05.843Z,63.50
2019-02-26T09:55:05.831Z,62.88
2019-02-26T09:56:05.824Z,63.91
2019-02-26T09:57:05.839Z,62.65
2019-02-26T09:58:05.818Z,62.85
2019-02-26T09:59:07.178Z,62.62
2019-02-26T10:00:05.778Z,63.03
2019-02-26T10:01:06.837Z,63.00
2019-02-26T10:02:06.137Z,63.13
2019-02-26T10:03:07.980Z,62.70
2019-02-26T10:04:05.762Z,62.70
2019-02-26T10:05:06.355Z,62.70
2019-02-26T10:06:05.720Z,61.65
2019-02-26T10:07:08.849Z,62.26
2019-02-26T10:08:05.697Z,61.72
2019-02-26T10:09:05.707Z,59.27
2019-02-26T10:10:06.534Z,59.75
2019-02-26T10:11:05.676Z,58.60
2019-02-26T10:12:07.565Z,59.31
2019-02-26T10:13:05.639Z,57.68
2019-02-26T10:14:07.798Z,58.29
2019-02-26T10:15:05.641Z,56.25
2019-02-26T10:16:06.470Z,55.91
2019-02-26T10:17:05.601Z,54.36
2019-02-26T10:18:07.210Z,52.32
2019-02-26T10:19:05.573Z,52.81
2019-02-26T10:20:07.700Z,52.60
2019-02-26T10:21:08.526Z,52.37
2019-02-26T10:22:08.996Z,52.04
2019-02-26T10:23:06.294Z,51.53
2019-02-26T10:24:05.519Z,50.52
2019-02-26T10:25:05.515Z,50.11
2019-02-26T10:26:07.647Z,49.80
2019-02-26T10:27:06.612Z,50.70
2019-02-26T10:28:08.679Z,49.78
2019-02-26T10:29:07.985Z,50.19
2019-02-26T10:30:07.888Z,50.98
2019-02-26T10:31:07.786Z,50.87
2019-02-26T10:32:05.442Z,49.15
2019-02-26T10:33:05.464Z,49.15
2019-02-26T10:34:07.801Z,50.37
2019-02-26T10:35:06.568Z,50.85
2019-02-26T10:36:07.891Z,51.18
2019-02-26T10:37:05.383Z,49.65
2019-02-26T10:38:08.078Z,50.37
2019-02-26T10:39:07.367Z,49.86
2019-02-26T10:40:07.141Z,48.94
2019-02-26T10:41:05.342Z,48.61
2019-02-26T10:42:05.329Z,48.43
2019-02-26T10:43:05.339Z,49.86
2019-02-26T10:44:05.312Z,50.98
2019-02-26T10:45:05.336Z,50.78
2019-02-26T10:46:05.284Z,48.72
2019-02-26T10:47:06.303Z,49.02
2019-02-26T10:48:05.280Z,48.82
2019-02-26T10:49:05.474Z,49.94
2019-02-26T10:50:05.252Z,49.22
2019-02-26T10:51:06.504Z,49.51
2019-02-26T10:52:05.219Z,50.45
2019-02-26T10:53:09.662Z,49.53
2019-02-26T10:54:08.929Z,49.10
2019-02-26T10:55:06.186Z,50.55
2019-02-26T10:56:05.177Z,50.12
2019-02-26T10:57:07.610Z,48.80
2019-02-26T10:58:10.054Z,50.12
2019-02-26T10:59:06.791Z,49.71
2019-02-26T11:00:07.890Z,48.51
2019-02-26T11:01:05.484Z,48.19
2019-02-26T11:02:05.114Z,49.10
2019-02-26T11:03:06.550Z,47.98
2019-02-26T11:04:05.094Z,49.00
2019-02-26T11:05:05.079Z,50.22
2019-02-26T11:06:07.383Z,49.89
2019-02-26T11:07:08.730Z,49.18
2019-02-26T11:08:09.153Z,48.47
2019-02-26T11:09:05.094Z,50.20
2019-02-26T11:10:05.024Z,50.40
2019-02-26T11:11:07.413Z,51.11
2019-02-26T11:12:07.857Z,49.28
2019-02-26T11:13:05.003Z,49.08
2019-02-26T11:14:07.176Z,49.26
2019-02-26T11:15:06.795Z,49.18
2019-02-26T11:16:04.963Z,48.24
2019-02-26T11:17:04.951Z,48.65
2019-02-26T11:18:04.946Z,49.23
2019-02-26T11:19:06.992Z,48.83
2019-02-26T11:20:07.582Z,48.11
2019-02-26T11:21:04.918Z,47.61
2019-02-26T11:22:04.895Z,49.01
2019-02-26T11:23:07.991Z,47.87
2019-02-26T11:24:06.134Z,47.36
2019-02-26T11:25:04.869Z,47.34
2019-02-26T11:26:06.611Z,47.44
2019-02-26T11:27:04.857Z,47.14
2019-02-26T11:28:07.301Z,46.12
2019-02-26T11:29:04.841Z,46.53
2019-02-26T11:30:05.131Z,47.03
2019-02-26T11:31:05.009Z,45.64
2019-02-26T11:32:07.609Z,46.12
2019-02-26T11:33:06.106Z,46.45
2019-02-26T11:34:07.277Z,48.48
2019-02-26T11:35:05.771Z,46.55
2019-02-26T11:36:05.526Z,47.59
2019-02-26T11:37:08.668Z,46.57
2019-02-26T11:38:04.723Z,47.49
2019-02-26T11:39:06.723Z,46.37
2019-02-26T11:40:05.521Z,46.65
2019-02-26T11:41:04.708Z,47.38
2019-02-26T11:42:04.685Z,48.50
2019-02-26T11:43:11.501Z,47.67
2019-02-26T11:44:10.025Z,47.56
2019-02-26T11:45:08.893Z,47.87
2019-02-26T11:46:06.953Z,47.97
2019-02-26T11:47:04.648Z,47.69
2019-02-26T11:48:06.631Z,46.57
2019-02-26T11:49:04.617Z,46.14
2019-02-26T11:50:06.888Z,46.35
2019-02-26T11:51:04.585Z,46.47
2019-02-26T11:52:04.711Z,46.78
2019-02-26T11:53:04.605Z,46.67
2019-02-26T11:54:04.949Z,46.17
2019-02-26T11:55:06.583Z,47.69
2019-02-26T11:56:04.533Z,45.76
2019-02-26T11:57:07.432Z,45.66
2019-02-26T11:58:08.073Z,45.64
2019-02-26T11:59:06.552Z,46.14
2019-02-26T12:00:06.743Z,46.14
2019-02-26T12:01:04.477Z,46.73
2019-02-26T12:02:06.326Z,46.22
2019-02-26T12:03:04.457Z,46.45
2019-02-26T12:04:06.030Z,47.26
2019-02-26T12:05:05.637Z,46.75
2019-02-26T12:06:06.909Z,46.14
2019-02-26T12:07:06.724Z,46.04
2019-02-26T12:08:05.406Z,47.44
2019-02-26T12:09:06.131Z,47.75
2019-02-26T12:10:09.485Z,46.73
2019-02-26T12:11:06.814Z,46.73
2019-02-26T12:12:06.173Z,46.20
2019-02-26T12:13:04.350Z,46.08
2019-02-26T12:14:04.339Z,46.08
2019-02-26T12:15:06.648Z,43.85
2019-02-26T12:16:04.321Z,46.06
2019-02-26T12:17:04.334Z,45.37
2019-02-26T12:18:04.294Z,45.47
2019-02-26T12:19:06.122Z,46.08
2019-02-26T12:20:04.280Z,46.18
2019-02-26T12:21:05.945Z,45.39
2019-02-26T12:22:05.988Z,45.17
2019-02-26T12:23:04.266Z,45.17
2019-02-26T12:24:06.616Z,46.59
2019-02-26T12:25:07.982Z,46.48
2019-02-26T12:26:04.208Z,46.71
2019-02-26T12:27:04.201Z,46.00
2019-02-26T12:28:05.407Z,45.29
2019-02-26T12:29:04.511Z,44.26
2019-02-26T12:30:04.166Z,45.59
2019-02-26T12:31:06.588Z,44.46
2019-02-26T12:32:04.754Z,46.38
2019-02-26T12:33:04.134Z,45.67
2019-02-26T12:34:04.123Z,44.06
2019-02-26T12:35:05.890Z,44.66
2019-02-26T12:36:05.262Z,44.54
2019-02-26T12:37:06.664Z,45.35
2019-02-26T12:38:17.229Z,45.75
2019-02-26T12:39:05.068Z,44.13
2019-02-26T12:40:04.058Z,43.43
2019-02-26T12:41:06.808Z,44.84
2019-02-26T12:42:04.041Z,46.06
2019-02-26T12:43:06.610Z,45.47
2019-02-26T12:44:08.137Z,43.75
2019-02-26T12:45:07.836Z,44.87
2019-02-26T12:46:04.768Z,45.57
2019-02-26T12:47:04.032Z,45.57
2019-02-26T12:48:06.277Z,44.56
2019-02-26T12:49:05.707Z,44.06
2019-02-26T12:50:06.048Z,45.17
2019-02-26T12:51:04.845Z,45.57
2019-02-26T12:52:03.928Z,46.48